Archival Weather

Norman Y Mineta San Jose Intl

San Jose, California (KSJC)

Report from: Wednesday, April 3, 2024 8:53 PM PDT
Current time: Tuesday, May 21, 2024 10:48 AM PDT

Current weather – Weather history – Daily summaries
Weather forecast

Temperature12.8°C (55.0°F)
Dew point6.1°C (43.0°F)
Winds 12 kts (6.2 m/s, 13.8 mph) West-Northwest (300°)
Wind gusts 20 kts (10.3 m/s, 23 mph)
Visibility10 mi. (16.1 km)
Clouds Ceiling: Overcast 2,500 ft. (762 m)
Altimeter30.04 in.Hg (1017 mB)
Relative humidity64 %
Density altitude-258 ft. (-79 m)
Sea-level pressure101.7 kPa (1017 mB, 30.04 in.Hg)
Remarks Automated weather observing station with precipitation discriminator
Flight conditions Marginal Visual Meteorological Conditions
Raw dataKSJC 040353Z 30012G20KT 10SM OVC025 13/06 A3004 RMK AO2 SLP172 T01280061
An error has occurred. This application may no longer respond until reloaded. Reload 🗙